Have a Safe July 4th! 

Flight Track Log - Related Links

Times and Time Zones

All times are in EDT time to prevent confusion due to time zone crossing. See the SKW6445 flight status page for this flight to view local times or setup timezone preferences in your user account.

Time Position Orientation Groundspeed Altitude Reporting Facility
EDT Latitude Longitude Course Direction KTS MPH feet Rate Location/Type
Thu 05:01:36 PM 29.9561 -95.3481 204° Southwest 159 183 800  Level Houston Center
Thu 05:02:07 PM 29.9347 -95.3592 237° Southwest 195 224 1,700 2,022 Climbing Houston Center
Thu 05:03:08 PM 29.8997 -95.4203 229° Southwest 229 264 3,900 2,049 Climbing Houston Center
Thu 05:04:10 PM 29.8542 -95.4808 245° Southwest 259 298 5,900 1,636 Climbing Houston Center
Thu 05:05:42 PM 29.8069 -95.5986 311° West 281 323 8,100 1,974 Climbing Houston Center
Thu 05:06:42 PM 29.8653 -95.6753 301° West 257 296 10,900 2,600 Climbing Houston Center
Thu 05:07:42 PM 29.9086 -95.7583 301° West 271 312 13,300 1,950 Climbing Houston Center
Thu 05:08:42 PM 29.9542 -95.8464 299° West 295 339 14,800 1,450 Climbing Houston Center
Thu 05:09:42 PM 30.0031 -95.9467 304° West 323 372 16,200 1,800 Climbing Houston Center
Thu 05:10:42 PM 30.0606 -96.0450 285° West 341 392 18,400 1,800 Climbing Houston Center
Thu 05:11:42 PM 30.0881 -96.1614 280° West 352 405 19,800 1,450 Climbing Houston Center
Thu 05:12:42 PM 30.1069 -96.2822 280° West 374 430 21,300 1,450 Climbing Houston Center
Thu 05:13:42 PM 30.1256 -96.4056 279° West 386 444 22,700 1,400 Climbing Houston Center
Thu 05:14:42 PM 30.1419 -96.5311 279° West 394 453 24,100 1,300 Climbing Houston Center
Thu 05:15:42 PM 30.1586 -96.6469 280° West 404 465 25,300 1,150 Climbing Houston Center
Thu 05:16:42 PM 30.1786 -96.7800 280° West 416 479 26,400 1,200 Climbing Houston Center
Thu 05:17:42 PM 30.1989 -96.9083 279° West 416 479 27,700 1,150 Climbing Houston Center
Thu 05:18:42 PM 30.2183 -97.0464 279° West 421 484 28,700 1,000 Climbing Houston Center
Thu 05:19:42 PM 30.2358 -97.1817 280° West 429 494 29,700 900 Climbing Houston Center
Thu 05:20:42 PM 30.2589 -97.3297 280° West 429 494 30,500 750 Climbing Houston Center
Thu 05:21:42 PM 30.2803 -97.4678 279° West 434 499 31,200 1,150 Climbing Houston Center
Thu 05:22:42 PM 30.2975 -97.6011 279° West 434 499 32,800 1,500 Climbing Houston Center
Thu 05:23:42 PM 30.3167 -97.7344 286° West 429 494 34,200 1,350 Climbing Houston Center
Thu 05:24:42 PM 30.3483 -97.8589 289° West 414 476 35,500 1,250 Climbing Houston Center
Thu 05:25:42 PM 30.3811 -97.9667 286° West 399 459 36,700 1,250 Climbing Houston Center
Thu 05:26:42 PM 30.4128 -98.0914 287° West 385 443 38,000 650 Climbing Houston Center
Thu 05:27:42 PM 30.4411 -98.1967 288° West 385 443 38,000  Level Houston Center
Thu 05:28:42 PM 30.4750 -98.3144 288° West 385 443 38,000  Level Houston Center
Thu 05:29:42 PM 30.5103 -98.4419 287° West 396 456 38,000  Level Houston Center
Thu 05:30:42 PM 30.5436 -98.5669 287° West 413 475 38,000  Level Houston Center
Thu 05:31:42 PM 30.5786 -98.6972 288° West 418 481 38,000  Level Houston Center
Thu 05:32:42 PM 30.6189 -98.8397 287° West 424 488 38,000  Level Houston Center
Thu 05:33:42 PM 30.6519 -98.9650 288° West 424 488 38,000  Level Houston Center
Thu 05:34:42 PM 30.6886 -99.0931 290° West 424 488 38,000  Level Houston Center
Thu 05:35:42 PM 30.7275 -99.2192 285° West 424 488 38,000  Level Houston Center
Thu 05:36:42 PM 30.7578 -99.3467 299° West 419 482 38,000  Level Houston Center
Thu 05:37:42 PM 30.8175 -99.4697 307° West 419 482 38,000  Level Houston Center
Thu 05:38:42 PM 30.8767 -99.5614 310° West 434 499 38,000  Level Houston Center
Thu 05:39:42 PM 30.9711 -99.6919 308° West 443 510 38,000  Level Houston Center
Thu 05:42:10 PM 31.1500 -99.9594 308° West 444 511 38,000  Level Fort Worth Center
Thu 05:43:11 PM 31.2247 -100.0733 309° West 444 511 38,000  Level Fort Worth Center
Thu 05:44:10 PM 31.2997 -100.1825 308° West 444 511 38,000  Level Fort Worth Center
Thu 05:45:11 PM 31.3764 -100.2967 308° West 444 511 38,000  Level Fort Worth Center
Thu 05:46:11 PM 31.4511 -100.4086 307° West 444 511 38,000  Level Fort Worth Center
Thu 05:47:11 PM 31.5233 -100.5231 309° West 444 511 38,000  Level Fort Worth Center
Thu 05:48:11 PM 31.6061 -100.6428 308° West 444 511 38,000  Level Fort Worth Center
Thu 05:49:11 PM 31.6822 -100.7578 308° West 439 505 38,000  Level Fort Worth Center
Thu 05:50:11 PM 31.7586 -100.8731 308° West 439 505 38,000  Level Fort Worth Center
Thu 05:51:11 PM 31.8347 -100.9883 307° West 445 512 38,000  Level Fort Worth Center
Thu 05:52:11 PM 31.9106 -101.1064 307° West 445 512 38,000  Level Fort Worth Center
Thu 05:53:11 PM 31.9844 -101.2219 308° West 445 512 38,000  Level Fort Worth Center
Thu 05:54:11 PM 32.0600 -101.3378 308° West 445 512 38,000  Level Fort Worth Center
Thu 05:55:11 PM 32.1358 -101.4539 305° West 445 512 38,000  Level Fort Worth Center
Thu 05:56:11 PM 32.2031 -101.5675 307° West 453 521 38,000  Level Fort Worth Center
Thu 05:57:11 PM 32.2764 -101.6836 308° West 453 521 38,000  Level Fort Worth Center
Thu 05:58:11 PM 32.3536 -101.8006 307° West 453 521 38,000  Level Fort Worth Center
Thu 05:59:11 PM 32.4289 -101.9197 308° West 448 516 38,000  Level Fort Worth Center
Thu 06:00:11 PM 32.5039 -102.0344 308° West 448 516 38,000  Level Fort Worth Center
Thu 06:01:11 PM 32.5831 -102.1542 306° West 454 522 38,000  Level Fort Worth Center
Thu 06:02:11 PM 32.6597 -102.2792 308° West 460 529 38,000  Level Fort Worth Center
Thu 06:03:11 PM 32.7383 -102.3969 305° West 465 535 38,000  Level Fort Worth Center
Thu 06:04:11 PM 32.8108 -102.5197 307° West 465 535 38,000  Level Fort Worth Center
Thu 06:05:11 PM 32.8872 -102.6403 307° West 465 535 38,000  Level Fort Worth Center
Thu 06:06:11 PM 32.9617 -102.7561 306° West 460 529 38,000  Level Fort Worth Center
Thu 06:07:11 PM 33.0378 -102.8797 306° West 460 529 38,000  Level Fort Worth Center
Thu 06:08:11 PM 33.1117 -103.0006 307° West 460 529 38,000  Level Fort Worth Center
Thu 06:10:16 PM 33.2756 -103.2636 305° West 448 516 38,000  Level Albuquerque Center
Thu 06:11:16 PM 33.3467 -103.3869 308° West 448 516 38,000  Level Albuquerque Center
Thu 06:12:16 PM 33.4167 -103.4931 305° West 448 516 38,000  Level Albuquerque Center
Thu 06:13:16 PM 33.4917 -103.6217 306° West 464 534 38,000  Level Albuquerque Center
Thu 06:14:16 PM 33.5708 -103.7550 307° West 459 528 38,000  Level Albuquerque Center
Thu 06:15:16 PM 33.6389 -103.8644 305° West 459 528 38,000  Level Albuquerque Center
Thu 06:16:16 PM 33.7178 -103.9983 306° West 459 528 38,000  Level Albuquerque Center
Thu 06:17:16 PM 33.7922 -104.1203 306° West 459 528 38,000  Level Albuquerque Center
Thu 06:18:16 PM 33.8664 -104.2450 311° West 459 528 38,000  Level Albuquerque Center
Thu 06:19:16 PM 33.9464 -104.3572 315° West 459 528 38,000  Level Albuquerque Center
Thu 06:20:16 PM 34.0261 -104.4544 315° West 459 528 38,000  Level Albuquerque Center
Thu 06:21:16 PM 34.1119 -104.5594 310° West 448 516 38,000  Level Albuquerque Center
Thu 06:22:16 PM 34.1939 -104.6772 304° West 454 522 38,000  Level Albuquerque Center
Thu 06:23:16 PM 34.2636 -104.8031 303° West 454 522 38,000  Level Albuquerque Center
Thu 06:24:16 PM 34.3331 -104.9317 303° West 448 516 38,000 -350 Level Albuquerque Center
Thu 06:25:16 PM 34.4067 -105.0706 303° West 448 516 37,300 -1,700 Descending Albuquerque Center
Thu 06:26:16 PM 34.4736 -105.1969 304° West 451 519 34,600 -2,650 Descending Albuquerque Center
Thu 06:27:16 PM 34.5406 -105.3189 302° West 445 512 32,000 -2,650 Descending Albuquerque Center
Thu 06:28:16 PM 34.6053 -105.4458 302° West 440 506 29,300 -2,700 Descending Albuquerque Center
Thu 06:29:16 PM 34.6739 -105.5781 304° West 456 525 26,600 -2,800 Descending Albuquerque Center
Thu 06:30:16 PM 34.7403 -105.6981 303° West 445 512 23,700 -2,850 Descending Albuquerque Center
Thu 06:31:16 PM 34.8025 -105.8158 301° West 433 498 20,900 -2,450 Descending Albuquerque Center
Thu 06:32:16 PM 34.8539 -105.9186 304° West 407 468 18,800 -2,000 Descending Albuquerque Center
Thu 06:33:16 PM 34.9114 -106.0214 266° West 389 448 16,900 -1,887 Descending Albuquerque Center
Thu 06:34:20 PM 34.9044 -106.1456 262° West 315 362 14,900 -1,650 Descending Albuquerque Center
Thu 06:35:16 PM 34.8947 -106.2267 264° West 305 351 13,600 -1,721 Descending Albuquerque Center
Thu 06:36:22 PM 34.8833 -106.3483 267° West 302 348 11,400 -1,714 Descending Albuquerque Center
Thu 06:37:22 PM 34.8797 -106.4422 313° West 272 313 10,000 -1,041 Descending Albuquerque Center
Thu 06:38:23 PM 34.9178 -106.4922 359° North 242 278 9,300 -984 Descending Albuquerque Center
Thu 06:39:24 PM 34.9803 -106.4942 344° North 206 237 8,000 -1,190 Descending Albuquerque Center
Thu 06:40:24 PM 35.0222 -106.5089 296° West 164 189 6,900 -1,091 Descending Albuquerque Center
Thu 06:41:25 PM 35.0414 -106.5569 296° West 158 182 5,800 -1,082 Descending Albuquerque Center

Login

Don't have an account? Register now (free) for customized features, flight alerts, and more!